createdAt,value
2022-09-20T00:00:54.478Z,101078.21875
2022-09-20T00:01:54.366Z,101078.93359375
2022-09-20T00:02:54.471Z,101077.96484375
2022-09-20T00:03:54.539Z,101079.91796875
2022-09-20T00:04:54.776Z,101081.015625
2022-09-20T00:05:54.471Z,101082.23046875
2022-09-20T00:06:54.432Z,101082.92578125
2022-09-20T00:07:54.481Z,101083.3125
2022-09-20T00:08:54.698Z,101084.5703125
2022-09-20T00:10:00.375Z,101085.1015625
2022-09-20T00:10:54.418Z,101084.171875
2022-09-20T00:11:54.325Z,101084.07421875
2022-09-20T00:12:54.330Z,101085.484375
2022-09-20T00:13:54.353Z,101089.03515625
2022-09-20T00:14:54.777Z,101086.2578125
2022-09-20T00:15:54.345Z,101086.8515625
2022-09-20T00:16:54.421Z,101086.90234375
2022-09-20T00:17:54.325Z,101087.453125
2022-09-20T00:18:54.447Z,101088.5859375
2022-09-20T00:19:54.713Z,101087.8671875
2022-09-20T00:20:57.325Z,101085.23828125
2022-09-20T00:21:54.539Z,101086.16796875
2022-09-20T00:22:54.526Z,101083.7109375
2022-09-20T00:23:54.771Z,101085.94921875
2022-09-20T00:24:54.700Z,101083.21484375
2022-09-20T00:25:54.497Z,101084.15625
2022-09-20T00:26:54.345Z,101081.58203125
2022-09-20T00:27:54.348Z,101088.08984375
2022-09-20T00:28:54.383Z,101089.72265625
2022-09-20T00:29:54.773Z,101088.7265625
2022-09-20T00:30:54.457Z,101090.3125
2022-09-20T00:31:57.458Z,101090.51953125
2022-09-20T00:32:54.531Z,101092.27734375
2022-09-20T00:33:54.399Z,101086.80078125
2022-09-20T00:34:54.772Z,101086.56640625
2022-09-20T00:35:54.548Z,101083.78125
2022-09-20T00:36:54.535Z,101091.59375
2022-09-20T00:37:54.433Z,101088.640625
2022-09-20T00:38:54.970Z,101088.296875
2022-09-20T00:39:54.704Z,101087.65234375
2022-09-20T00:40:54.425Z,101087.73828125
2022-09-20T00:41:54.317Z,101087.68359375
2022-09-20T00:42:57.384Z,101087.19921875
2022-09-20T00:43:54.576Z,101083.4921875
2022-09-20T00:44:54.706Z,101085.61328125
2022-09-20T00:45:54.509Z,101081.07421875
2022-09-20T00:46:54.478Z,101084.2890625
2022-09-20T00:47:54.524Z,101084.51171875
2022-09-20T00:48:54.450Z,101082.41796875
2022-09-20T00:49:54.871Z,101081.7578125
2022-09-20T00:50:54.534Z,101084.70703125
2022-09-20T00:51:54.406Z,101084.73046875
2022-09-20T00:52:54.481Z,101083.36328125
2022-09-20T00:54:00.345Z,101086.3125
2022-09-20T00:54:54.794Z,101084.79296875
2022-09-20T00:55:54.542Z,101082.8125
2022-09-20T00:56:54.541Z,101089.79296875
2022-09-20T00:57:54.426Z,101083.640625
2022-09-20T00:58:54.334Z,101083.515625
2022-09-20T00:59:54.708Z,101080.67578125
2022-09-20T01:00:54.435Z,101081.6484375
2022-09-20T01:01:54.412Z,101081.9765625
2022-09-20T01:02:54.347Z,101084.80859375
2022-09-20T01:03:54.345Z,101085.91015625
2022-09-20T01:05:00.386Z,101084.3046875
2022-09-20T01:05:54.565Z,101083.55078125
2022-09-20T01:06:54.540Z,101085.6796875
2022-09-20T01:07:54.516Z,101086.66015625
2022-09-20T01:08:54.780Z,101086.58984375
2022-09-20T01:09:54.764Z,101087.0390625
2022-09-20T01:10:54.468Z,101085.4453125
2022-09-20T01:11:54.423Z,101085.98828125
2022-09-20T01:12:54.415Z,101084.3515625
2022-09-20T01:13:54.452Z,101086.8515625
2022-09-20T01:14:54.781Z,101080.91015625
2022-09-20T01:15:57.424Z,101082.484375
2022-09-20T01:16:54.651Z,101081.671875
2022-09-20T01:17:54.542Z,101081.84375
2022-09-20T01:18:54.536Z,101085.06640625
2022-09-20T01:19:54.707Z,101086.30859375
2022-09-20T01:20:54.545Z,101084.83203125
2022-09-20T01:21:54.439Z,101087.66796875
2022-09-20T01:22:54.334Z,101087.44921875
2022-09-20T01:23:54.778Z,101088.55078125
2022-09-20T01:24:54.707Z,101086.796875
2022-09-20T01:25:54.448Z,101088.1171875
2022-09-20T01:26:57.334Z,101096.34375
2022-09-20T01:27:54.599Z,101093.50390625
2022-09-20T01:28:54.522Z,101092.8203125
2022-09-20T01:29:54.771Z,101091.7578125
2022-09-20T01:30:54.559Z,101093.08203125
2022-09-20T01:31:54.591Z,101094.06640625
2022-09-20T01:32:54.466Z,101095.0234375
2022-09-20T01:33:54.448Z,101096.5
2022-09-20T01:34:54.710Z,101094.32421875
2022-09-20T01:35:54.492Z,101093.4765625
2022-09-20T01:36:54.361Z,101092.20703125
2022-09-20T01:37:57.486Z,101090.35546875
2022-09-20T01:38:54.700Z,101088.84375
2022-09-20T01:39:54.698Z,101090.8046875
2022-09-20T01:40:54.424Z,101094.1796875
2022-09-20T01:41:54.325Z,101092.10546875
2022-09-20T01:42:54.336Z,101092.53125
2022-09-20T01:43:54.334Z,101097.2421875
2022-09-20T01:44:54.770Z,101095.69921875
2022-09-20T01:45:54.452Z,101092.7109375
2022-09-20T01:46:54.352Z,101096.79296875
2022-09-20T01:47:54.327Z,101093.84765625
2022-09-20T01:48:57.321Z,101095.1015625
2022-09-20T01:49:54.701Z,101093.02734375
2022-09-20T01:50:54.447Z,101090.40625
2022-09-20T01:51:54.450Z,101093.03125
2022-09-20T01:52:54.352Z,101091.88671875
2022-09-20T01:53:54.780Z,101087.95703125
2022-09-20T01:54:54.702Z,101092.26953125
2022-09-20T01:55:54.361Z,101091.84765625
2022-09-20T01:56:54.350Z,101090.9140625
2022-09-20T01:57:54.348Z,101088.50390625
2022-09-20T01:59:12.835Z,101084.4609375
2022-09-20T02:00:00.384Z,101089.1640625
2022-09-20T02:00:54.478Z,101091.33203125
2022-09-20T02:01:54.477Z,101091.50390625
2022-09-20T02:02:54.328Z,101087.8359375
2022-09-20T02:03:54.324Z,101093.0703125
2022-09-20T02:04:54.491Z,101090.6015625
2022-09-20T02:05:54.351Z,101086.125
2022-09-20T02:06:54.343Z,101089.18359375
2022-09-20T02:07:54.340Z,101089.83203125
2022-09-20T02:08:54.845Z,101086.93359375
2022-09-20T02:09:54.701Z,101085.88671875
2022-09-20T02:10:57.355Z,101087.7421875
2022-09-20T02:11:54.436Z,101090.015625
2022-09-20T02:12:54.489Z,101087.2421875
2022-09-20T02:13:54.562Z,101086.1875
2022-09-20T02:14:54.704Z,101085.08984375
2022-09-20T02:15:54.525Z,101085.125
2022-09-20T02:16:54.620Z,101088.72265625
2022-09-20T02:17:54.496Z,101086.53125
2022-09-20T02:18:54.427Z,101086.8515625
2022-09-20T02:19:54.780Z,101086.84765625
2022-09-20T02:20:54.521Z,101090.828125
2022-09-20T02:21:57.306Z,101090.38671875
2022-09-20T02:22:54.594Z,101080.7890625
2022-09-20T02:23:54.823Z,101082.09765625
2022-09-20T02:24:54.701Z,101085.875
2022-09-20T02:25:54.458Z,101082.2734375
2022-09-20T02:26:54.453Z,101084.66796875
2022-09-20T02:27:54.336Z,101086.71875
2022-09-20T02:28:54.439Z,101088.953125
2022-09-20T02:29:54.779Z,101082.02734375
2022-09-20T02:30:54.523Z,101080.0234375
2022-09-20T02:31:54.546Z,101082.078125
2022-09-20T02:32:57.427Z,101087.92578125
2022-09-20T02:33:54.545Z,101082.8515625
2022-09-20T02:34:54.705Z,101085.66015625
2022-09-20T02:35:54.466Z,101086.95703125
2022-09-20T02:36:54.349Z,101091.71484375
2022-09-20T02:37:54.338Z,101087.16015625
2022-09-20T02:38:54.705Z,101086.0234375
2022-09-20T02:39:54.777Z,101089.8359375
2022-09-20T02:40:54.531Z,101088.03125
2022-09-20T02:41:54.418Z,101085.88671875
2022-09-20T02:42:54.494Z,101089.03515625
2022-09-20T02:43:57.476Z,101091.03515625
2022-09-20T02:44:54.790Z,101088.703125
2022-09-20T02:45:54.536Z,101088.91796875
2022-09-20T02:46:54.356Z,101093.90625
2022-09-20T02:47:54.459Z,101095.37109375
2022-09-20T02:48:54.552Z,101094.7578125
2022-09-20T02:49:54.702Z,101100.265625
2022-09-20T02:50:54.587Z,101096.6171875
2022-09-20T02:51:54.426Z,101098.14453125
2022-09-20T02:52:54.469Z,101100.04296875
2022-09-20T02:53:54.807Z,101097.69140625
2022-09-20T02:55:00.330Z,101097.96875
2022-09-20T02:55:54.571Z,101099.7734375
2022-09-20T02:56:54.470Z,101099.875
2022-09-20T02:57:54.324Z,101100.359375
2022-09-20T02:58:54.336Z,101103.68359375
2022-09-20T02:59:54.778Z,101101.78125
2022-09-20T03:00:54.361Z,101098.42578125
2022-09-20T03:01:54.418Z,101103.125
2022-09-20T03:02:54.336Z,101102.9375
2022-09-20T03:03:54.348Z,101106.40625
2022-09-20T03:04:54.771Z,101104.09765625
2022-09-20T03:05:57.361Z,101103.4375
2022-09-20T03:06:54.403Z,101103.7109375
2022-09-20T03:07:54.444Z,101102.25
2022-09-20T03:08:54.797Z,101103.1796875
2022-09-20T03:09:54.703Z,101102.87890625
2022-09-20T03:10:54.510Z,101102.484375
2022-09-20T03:11:54.322Z,101101.0859375
2022-09-20T03:12:54.339Z,101101.30859375
2022-09-20T03:13:54.352Z,101107.4453125
2022-09-20T03:14:54.780Z,101107.8828125
2022-09-20T03:16:01.166Z,101106.234375
2022-09-20T03:16:57.600Z,101107.26953125
2022-09-20T03:17:54.491Z,101102.359375
2022-09-20T03:18:54.444Z,101109.6484375
2022-09-20T03:19:54.713Z,101104.640625
2022-09-20T03:20:54.565Z,101102.015625
2022-09-20T03:21:54.422Z,101101.35546875
2022-09-20T03:22:54.352Z,101103.76171875
2022-09-20T03:23:54.883Z,101101.05078125
2022-09-20T03:24:54.431Z,101100.71484375
2022-09-20T03:25:54.334Z,101102.38671875
2022-09-20T03:26:54.349Z,101102.82421875
2022-09-20T03:27:57.419Z,101102.75390625
2022-09-20T03:28:54.548Z,101106.1796875
2022-09-20T03:29:54.709Z,101107.640625
2022-09-20T03:30:54.541Z,101107.38671875
2022-09-20T03:31:54.593Z,101107.4140625
2022-09-20T03:32:54.515Z,101105.390625
2022-09-20T03:33:54.481Z,101108.7109375
2022-09-20T03:34:54.777Z,101109.44140625
2022-09-20T03:35:54.518Z,101110.84375
2022-09-20T03:36:54.458Z,101108.4375
2022-09-20T03:37:54.556Z,101110.93359375
2022-09-20T03:39:00.381Z,101110.9765625
2022-09-20T03:39:54.726Z,101111.23046875
2022-09-20T03:40:54.602Z,101110.08984375
2022-09-20T03:41:54.398Z,101107.078125
2022-09-20T03:42:54.483Z,101110.5859375
2022-09-20T03:43:54.507Z,101109.78125
2022-09-20T03:44:54.707Z,101105.98828125
2022-09-20T03:45:54.458Z,101109.2421875
2022-09-20T03:46:54.477Z,101110.44140625
2022-09-20T03:47:54.436Z,101113.984375
2022-09-20T03:48:54.324Z,101111.97265625
2022-09-20T03:50:00.436Z,101114.43359375
2022-09-20T03:50:54.520Z,101111.0078125
2022-09-20T03:51:54.425Z,101112.1015625
2022-09-20T03:52:54.481Z,101113.85546875
2022-09-20T03:53:54.545Z,101111.515625
2022-09-20T03:54:54.698Z,101112.39453125
2022-09-20T03:55:54.472Z,101115.18359375
2022-09-20T03:56:54.454Z,101118.10546875
2022-09-20T03:57:54.449Z,101113.68359375
2022-09-20T03:58:54.458Z,101112.7265625
2022-09-20T03:59:54.714Z,101120.984375
2022-09-20T04:00:57.402Z,101120.21875
2022-09-20T04:01:54.501Z,101120.375
2022-09-20T04:02:54.454Z,101120.28125
2022-09-20T04:03:54.450Z,101123.609375
2022-09-20T04:04:54.775Z,101122.75
2022-09-20T04:05:54.566Z,101119.68359375
2022-09-20T04:06:54.338Z,101124.3125
2022-09-20T04:07:54.321Z,101123.0234375
2022-09-20T04:08:54.780Z,101123.91796875
2022-09-20T04:09:54.703Z,101125.328125
2022-09-20T04:10:54.436Z,101124.7421875
2022-09-20T04:11:57.497Z,101121.515625
2022-09-20T04:12:54.481Z,101118.66796875
2022-09-20T04:13:54.330Z,101118.25
2022-09-20T04:14:54.774Z,101121.30078125
2022-09-20T04:15:54.518Z,101124.24609375
2022-09-20T04:16:54.532Z,101117.578125
2022-09-20T04:17:54.333Z,101117.35546875
2022-09-20T04:18:54.397Z,101120.53515625
2022-09-20T04:19:54.779Z,101119.28125
2022-09-20T04:20:54.477Z,101120.99609375
2022-09-20T04:21:54.330Z,101118.8359375
2022-09-20T04:22:57.331Z,101120.375
2022-09-20T04:23:54.707Z,101122.35546875
2022-09-20T04:24:54.706Z,101121.26171875
2022-09-20T04:25:54.429Z,101115.8671875
2022-09-20T04:26:54.344Z,101112.83984375
2022-09-20T04:27:54.497Z,101116.359375
2022-09-20T04:28:54.463Z,101117.1875
2022-09-20T04:29:54.773Z,101119.05078125
2022-09-20T04:30:54.429Z,101116.140625
2022-09-20T04:31:54.552Z,101114.88671875
2022-09-20T04:32:54.344Z,101119.14453125
2022-09-20T04:33:57.400Z,101117.1328125
2022-09-20T04:34:54.715Z,101119.48046875
2022-09-20T04:35:54.512Z,101117.2421875
2022-09-20T04:36:54.460Z,101120.9609375
2022-09-20T04:37:54.529Z,101114.80859375
2022-09-20T04:38:54.792Z,101115.2109375
2022-09-20T04:39:54.705Z,101120.7421875
2022-09-20T04:40:54.421Z,101119.66796875
2022-09-20T04:41:54.386Z,101115.6328125
2022-09-20T04:42:54.345Z,101114.84375
2022-09-20T04:43:54.470Z,101114.9609375
2022-09-20T04:45:00.361Z,101116.75
2022-09-20T04:45:54.477Z,101117.0390625
2022-09-20T04:46:56.233Z,101123.04296875
2022-09-20T04:47:54.413Z,101120.984375
2022-09-20T04:48:54.346Z,101123.49609375
2022-09-20T04:49:54.783Z,101127.1015625
2022-09-20T04:50:54.352Z,101127.46484375
2022-09-20T04:51:54.464Z,101132.1328125
2022-09-20T04:52:54.569Z,101137.07421875
2022-09-20T04:53:54.708Z,101136.7734375
2022-09-20T04:54:54.704Z,101136.87109375
2022-09-20T04:55:57.377Z,101139.6171875
2022-09-20T04:56:54.460Z,101139.1328125
2022-09-20T04:57:54.327Z,101140.1328125
2022-09-20T04:58:54.438Z,101141.9296875
2022-09-20T04:59:54.775Z,101147.93359375
2022-09-20T05:00:54.528Z,101148.16796875
2022-09-20T05:01:54.502Z,101150.12890625
2022-09-20T05:02:54.360Z,101151.28125
2022-09-20T05:03:54.345Z,101150
2022-09-20T05:04:54.777Z,101153.09765625
2022-09-20T05:05:54.505Z,101154.46484375
2022-09-20T05:06:57.361Z,101157.2421875
2022-09-20T05:07:54.533Z,101162.9296875
2022-09-20T05:08:58.800Z,101163.84375
2022-09-20T05:09:54.698Z,101162.53515625
2022-09-20T05:10:54.450Z,101163.69921875
2022-09-20T05:11:54.423Z,101164.27734375
2022-09-20T05:12:54.350Z,101162.40234375
2022-09-20T05:13:54.357Z,101164.73046875
2022-09-20T05:14:54.774Z,101165.35546875
2022-09-20T05:15:54.413Z,101166.76171875
2022-09-20T05:16:54.531Z,101167.31640625
2022-09-20T05:17:57.321Z,101165.85546875
2022-09-20T05:18:54.434Z,101167.1953125
2022-09-20T05:19:54.775Z,101169.2734375
2022-09-20T05:20:54.488Z,101165.21875
2022-09-20T05:21:54.331Z,101165.9140625
2022-09-20T05:22:54.313Z,101165.9921875
2022-09-20T05:23:54.704Z,101164.875
2022-09-20T05:24:54.774Z,101160.49609375
2022-09-20T05:25:54.401Z,101164.37890625
2022-09-20T05:26:54.327Z,101162.84765625
2022-09-20T05:27:54.487Z,101169.79296875
2022-09-20T05:28:57.442Z,101166.59375
2022-09-20T05:29:54.711Z,101168.890625
2022-09-20T05:30:54.494Z,101169.49609375
2022-09-20T05:31:54.384Z,101171.0625
2022-09-20T05:32:54.464Z,101164.5625
2022-09-20T05:33:54.418Z,101166.1640625
2022-09-20T05:34:54.702Z,101165.90625
2022-09-20T05:35:54.442Z,101168.65625
2022-09-20T05:36:54.382Z,101168.2890625
2022-09-20T05:37:54.458Z,101170.46875
2022-09-20T05:38:54.713Z,101173.69921875
2022-09-20T05:40:00.480Z,101176.42578125
2022-09-20T05:40:54.542Z,101176.72265625
2022-09-20T05:41:54.484Z,101176.453125
2022-09-20T05:42:54.498Z,101179.578125
2022-09-20T05:43:54.525Z,101178.00390625
2022-09-20T05:44:54.779Z,101178.57421875
2022-09-20T05:45:54.478Z,101178.62109375
2022-09-20T05:46:54.329Z,101179.18359375
2022-09-20T05:47:54.351Z,101179.7421875
2022-09-20T05:48:54.344Z,101182.140625
2022-09-20T05:49:54.772Z,101181.328125
2022-09-20T05:51:00.527Z,101181.76953125
2022-09-20T05:51:54.537Z,101180.62109375
2022-09-20T05:52:54.405Z,101180.63671875
2022-09-20T05:53:54.824Z,101182.73046875
2022-09-20T05:54:54.715Z,101184.40234375
2022-09-20T05:55:54.549Z,101182.0546875
2022-09-20T05:56:54.481Z,101184.4609375
2022-09-20T05:57:54.337Z,101182.66015625
2022-09-20T05:58:54.474Z,101179.59765625
2022-09-20T05:59:54.704Z,101181.1953125
2022-09-20T06:00:54.572Z,101182.9921875
2022-09-20T06:01:57.530Z,101184.34375
2022-09-20T06:02:54.525Z,101184.33203125
2022-09-20T06:03:54.353Z,101179.921875
2022-09-20T06:04:54.478Z,101184.4921875
2022-09-20T06:05:54.532Z,101187.23046875
2022-09-20T06:06:54.499Z,101184.07421875
2022-09-20T06:07:54.348Z,101187.28125
2022-09-20T06:08:54.826Z,101184.99609375
2022-09-20T06:09:54.705Z,101181.6328125
2022-09-20T06:10:54.453Z,101179.1015625
2022-09-20T06:11:54.319Z,101181.0078125
2022-09-20T06:12:57.354Z,101177.671875
2022-09-20T06:13:54.542Z,101182.18359375
2022-09-20T06:14:54.702Z,101185.7734375
2022-09-20T06:15:54.566Z,101180.79296875
2022-09-20T06:16:54.432Z,101182.09765625
2022-09-20T06:17:54.472Z,101184.984375
2022-09-20T06:18:54.426Z,101185.88671875
2022-09-20T06:19:54.782Z,101184.8203125
2022-09-20T06:20:54.547Z,101189.4765625
2022-09-20T06:21:54.447Z,101186.73828125
2022-09-20T06:22:54.474Z,101191.56640625
2022-09-20T06:24:00.388Z,101189.73828125
2022-09-20T06:24:54.703Z,101190.8046875
2022-09-20T06:25:54.453Z,101192.99609375
2022-09-20T06:26:54.319Z,101197.2890625
2022-09-20T06:27:54.352Z,101197.0625
2022-09-20T06:28:58.229Z,101197.49609375
2022-09-20T06:29:54.712Z,101199.29296875
2022-09-20T06:30:54.419Z,101198.91015625
2022-09-20T06:31:54.330Z,101197.17578125
2022-09-20T06:32:54.342Z,101198.05078125
2022-09-20T06:33:54.356Z,101195.64453125
2022-09-20T06:35:00.404Z,101197.703125
2022-09-20T06:35:58.722Z,101198.359375
2022-09-20T06:36:54.452Z,101195.16796875
2022-09-20T06:37:54.536Z,101195.72265625
2022-09-20T06:38:54.892Z,101196.578125
2022-09-20T06:39:54.702Z,101194.5546875
2022-09-20T06:40:54.330Z,101193.296875
2022-09-20T06:41:54.437Z,101194.0625
2022-09-20T06:42:54.493Z,101196.3359375
2022-09-20T06:43:54.357Z,101196.62890625
2022-09-20T06:44:54.775Z,101197.91796875
2022-09-20T06:45:57.439Z,101197.99609375
2022-09-20T06:46:54.556Z,101200.16015625
2022-09-20T06:47:54.431Z,101199.03515625
2022-09-20T06:48:54.415Z,101202.12109375
2022-09-20T06:49:54.784Z,101208.390625
2022-09-20T06:50:54.443Z,101207.19140625
2022-09-20T06:51:54.441Z,101208.33203125
2022-09-20T06:52:54.411Z,101211.58984375
2022-09-20T06:53:54.926Z,101210.92578125
2022-09-20T06:54:54.705Z,101214.359375
2022-09-20T06:55:54.544Z,101218.43359375
2022-09-20T06:56:57.447Z,101215.49609375
2022-09-20T06:57:54.523Z,101212.421875
2022-09-20T06:58:54.448Z,101212.50390625
2022-09-20T06:59:54.707Z,101210.19140625
2022-09-20T07:00:54.538Z,101209.01171875
2022-09-20T07:01:54.459Z,101210.46484375
2022-09-20T07:02:54.457Z,101215.796875
2022-09-20T07:03:54.404Z,101207.62109375
2022-09-20T07:04:54.777Z,101208.4375
2022-09-20T07:05:54.546Z,101212.8515625
2022-09-20T07:06:54.330Z,101210.46484375
2022-09-20T07:07:57.493Z,101208.98046875
2022-09-20T07:08:54.764Z,101213.18359375
2022-09-20T07:09:54.709Z,101215.4921875
2022-09-20T07:10:54.538Z,101212.42578125
2022-09-20T07:11:54.402Z,101216.50390625
2022-09-20T07:12:54.335Z,101213.84765625
2022-09-20T07:13:54.472Z,101213.64453125
2022-09-20T07:14:54.366Z,101218.1640625
2022-09-20T07:15:54.354Z,101218.390625
2022-09-20T07:16:54.461Z,101218.1875
2022-09-20T07:17:54.336Z,101214.77734375
2022-09-20T07:18:57.331Z,101215.1328125
2022-09-20T07:19:54.702Z,101219.41015625
2022-09-20T07:20:54.450Z,101224.57421875
2022-09-20T07:21:54.353Z,101218.75
2022-09-20T07:22:54.440Z,101221.66015625
2022-09-20T07:23:54.845Z,101221.4609375
2022-09-20T07:24:54.706Z,101222.81640625
2022-09-20T07:25:54.487Z,101227.83203125
2022-09-20T07:26:54.575Z,101223.90234375
2022-09-20T07:27:54.403Z,101230.40625
2022-09-20T07:28:54.430Z,101226.88671875
2022-09-20T07:29:57.682Z,101226.04296875
2022-09-20T07:30:54.557Z,101225.97265625
2022-09-20T07:31:54.637Z,101224.6484375
2022-09-20T07:32:54.547Z,101221.2421875
2022-09-20T07:33:54.546Z,101224.21875
2022-09-20T07:34:54.704Z,101224.5859375
2022-09-20T07:35:54.448Z,101224.2578125
2022-09-20T07:36:54.347Z,101222.578125
2022-09-20T07:37:54.442Z,101217.125
2022-09-20T07:38:54.777Z,101219.4609375
2022-09-20T07:39:54.706Z,101213.828125
2022-09-20T07:40:57.365Z,101217.98828125
2022-09-20T07:41:54.431Z,101214.78515625
2022-09-20T07:42:56.183Z,101216.97265625
2022-09-20T07:43:54.486Z,101216.81640625
2022-09-20T07:44:54.702Z,101217.4921875
2022-09-20T07:45:54.551Z,101217.17578125
2022-09-20T07:46:54.454Z,101214.9140625
2022-09-20T07:47:54.362Z,101222.46484375
2022-09-20T07:48:54.347Z,101224.32421875
2022-09-20T07:49:54.782Z,101222.2109375
2022-09-20T07:50:54.457Z,101225.10546875
2022-09-20T07:51:57.475Z,101224.48046875
2022-09-20T07:52:54.562Z,101224.0234375
2022-09-20T07:53:54.735Z,101225.21484375
2022-09-20T07:54:54.795Z,101225.3515625
2022-09-20T07:55:54.533Z,101227.18359375
2022-09-20T07:56:54.549Z,101227.0234375
2022-09-20T07:57:54.347Z,101228.71875
2022-09-20T07:58:54.330Z,101230.12109375
2022-09-20T07:59:54.493Z,101226.734375
2022-09-20T08:00:54.538Z,101228.08203125
2022-09-20T08:01:54.368Z,101230.0859375
2022-09-20T08:02:57.377Z,101228.78125
2022-09-20T08:03:54.442Z,101231.26171875
2022-09-20T08:04:54.820Z,101230.66796875
2022-09-20T08:05:54.428Z,101231.3828125
2022-09-20T08:06:54.332Z,101232.6640625
2022-09-20T08:07:54.352Z,101234.3515625
2022-09-20T08:08:54.708Z,101235.8828125
2022-09-20T08:09:54.774Z,101238.94140625
2022-09-20T08:10:54.419Z,101233.09765625
2022-09-20T08:11:54.543Z,101236.9921875
2022-09-20T08:14:32.555Z,101236.1484375
2022-09-20T08:15:32.921Z,101236.6171875
2022-09-20T08:16:32.720Z,101228.77734375
2022-09-20T08:17:32.625Z,101229.38671875
2022-09-20T08:18:32.560Z,101229.9609375
2022-09-20T08:19:35.568Z,101234.05078125
2022-09-20T08:20:32.846Z,101231.7890625
2022-09-20T08:21:32.658Z,101233.046875
2022-09-20T08:22:32.646Z,101233.0625
2022-09-20T08:23:32.611Z,101235.23828125
2022-09-20T08:24:32.923Z,101235.6328125
2022-09-20T08:25:32.840Z,101235.6171875
2022-09-20T08:26:32.568Z,101237.3828125
2022-09-20T08:27:32.558Z,101236.45703125
2022-09-20T08:28:32.500Z,101238.07421875
2022-09-20T08:29:32.566Z,101236.578125
2022-09-20T08:30:38.612Z,101238.2578125
2022-09-20T08:31:32.552Z,101238.06640625
2022-09-20T08:32:32.476Z,101238.51953125
2022-09-20T08:33:32.477Z,101231.9609375
2022-09-20T08:34:32.464Z,101235.05078125
2022-09-20T08:35:32.852Z,101236.98828125
2022-09-20T08:36:36.445Z,101234.984375
2022-09-20T08:37:32.565Z,101232.12890625
2022-09-20T08:40:09.933Z,101238.53515625
2022-09-20T08:41:09.899Z,101236.109375
2022-09-20T08:42:09.530Z,101235.26171875
2022-09-20T08:43:09.466Z,101235.42578125
2022-09-20T08:44:09.476Z,101235.07421875
2022-09-20T08:45:22.255Z,101231.7578125
2022-09-20T08:46:09.895Z,101231.765625
2022-09-20T08:47:09.627Z,101233.1484375
2022-09-20T08:48:09.542Z,101232.0859375
2022-09-20T08:49:10.885Z,101241.5
2022-09-20T08:50:10.328Z,101237.3828125
2022-09-20T08:51:09.967Z,101237.0703125
2022-09-20T08:52:10.743Z,101234.4921875
2022-09-20T08:53:09.464Z,101235.62890625
2022-09-20T08:54:09.454Z,101237.56640625
2022-09-20T08:55:09.893Z,101238.8125
2022-09-20T08:56:15.535Z,101238.65625
2022-09-20T08:57:09.552Z,101239.625
2022-09-20T08:58:09.559Z,101235.23046875
2022-09-20T08:59:09.576Z,101235.37109375
2022-09-20T09:00:09.633Z,101237.625
2022-09-20T09:01:09.922Z,101238.07421875
2022-09-20T09:02:09.614Z,101238.58203125
2022-09-20T09:03:09.455Z,101240.68359375
2022-09-20T09:04:09.535Z,101242.14453125
2022-09-20T09:05:09.570Z,101243.20703125
2022-09-20T09:06:13.271Z,101239.64453125
2022-09-20T09:07:12.494Z,101240.2109375
2022-09-20T09:08:09.637Z,101243.76171875
2022-09-20T09:09:09.491Z,101242.25390625
2022-09-20T09:10:09.892Z,101239.35546875
2022-09-20T09:11:09.811Z,101243.296875
2022-09-20T09:12:09.614Z,101243.25390625
2022-09-20T09:13:09.444Z,101241.22265625
2022-09-20T09:14:09.438Z,101241.57421875
2022-09-20T09:15:09.466Z,101242.88671875
2022-09-20T09:16:10.047Z,101245.0625
2022-09-20T09:17:09.594Z,101246.05859375
2022-09-20T09:18:12.444Z,101244.21875
2022-09-20T09:19:09.523Z,101242.54296875
2022-09-20T09:20:09.579Z,101242.9375
2022-09-20T09:21:09.915Z,101242.65234375
2022-09-20T09:22:09.631Z,101239.69140625
2022-09-20T09:23:09.598Z,101241.0234375
2022-09-20T09:24:09.565Z,101236.37109375
2022-09-20T09:25:09.814Z,101232.5546875
2022-09-20T09:26:09.904Z,101236.6640625
2022-09-20T09:27:09.641Z,101236
2022-09-20T09:28:09.526Z,101235.9921875
2022-09-20T09:29:12.444Z,101238.453125
2022-09-20T09:30:09.668Z,101243.4296875
2022-09-20T09:31:09.807Z,101242.07421875
2022-09-20T09:32:09.826Z,101237.82421875
2022-09-20T09:33:09.655Z,101236.49609375
2022-09-20T09:34:09.638Z,101236.59375
2022-09-20T09:35:09.737Z,101238.28515625
2022-09-20T09:36:09.880Z,101232.96484375
2022-09-20T09:37:09.622Z,101236.6796875
2022-09-20T09:38:09.475Z,101236.41796875
2022-09-20T09:39:09.565Z,101232.96484375
2022-09-20T09:40:15.564Z,101235.28515625
2022-09-20T09:41:09.819Z,101232.75
2022-09-20T09:42:09.677Z,101234.25390625
2022-09-20T09:43:09.610Z,101231.9453125
2022-09-20T09:44:09.471Z,101224.65625
2022-09-20T09:45:09.560Z,101228.7109375
2022-09-20T09:46:09.898Z,101228.76171875
2022-09-20T09:47:09.537Z,101226.3828125
2022-09-20T09:48:09.520Z,101227.48828125
2022-09-20T09:49:12.046Z,101227.53515625
2022-09-20T09:50:09.979Z,101226.375
2022-09-20T09:51:15.551Z,101223.31640625
2022-09-20T09:52:09.627Z,101224.7578125
2022-09-20T09:53:09.612Z,101232.40234375
2022-09-20T09:54:09.595Z,101231.98828125
2022-09-20T09:55:09.641Z,101230.671875
2022-09-20T09:56:13.374Z,101223.38671875
2022-09-20T09:57:09.547Z,101225.37109375
2022-09-20T09:58:09.541Z,101226.34375
2022-09-20T09:59:09.628Z,101225.49609375
2022-09-20T10:00:15.389Z,101223.97265625
2022-09-20T10:01:09.981Z,101221.953125
2022-09-20T10:02:12.534Z,101225.171875
2022-09-20T10:03:09.525Z,101224.0234375